DLH569 DNMM-EDDF
Flight info
| Callsign | DLH569 |
|---|---|
| Flight time | N/A |
| Altitude | 39000 |
| Route | BUDSI1Q BUDSI UB731 KIGRA UY333 MIGNI UY212 EREBO/N0483F400 UA604 TMS/N0480F390 UZ111 OPRIC/N0479F400 UZ111 ELO UR978 CSO UA605 CIRTA DCT ETOIL DCT OMEDA DCT TORTU DCT OLETI DCT OTMUV DCT PEPAG DCT ABESI DCT LADOL T163 EMPAX EMPAX5C |
| Aircraft | B789/H-SADFGHIJ1J2J3J4J5LOP1P2RWXYZ/LB1D1 |
Departure
| Time | 2026-05-09 06:23 |
|---|---|
| Airport | Murtala Muhammed International Airport (DNMM) |
Arrival
| Time | N/A |
|---|---|
| Airport | Frankfurt Main Airport (EDDF) |
| Time | Latitude | Longitude | Altitude | Speed | Heading |
|---|---|---|---|---|---|
| 2026-05-09 06:05 | 6.58014 | 3.32206 | 99 ft | 0 kts | 112° |
| 2026-05-09 06:08 | 6.58018 | 3.32196 | 103 ft | 2 kts | 101° |
| 2026-05-09 06:08 | 6.58020 | 3.32180 | 101 ft | 2 kts | 88° |
| 2026-05-09 06:09 | 6.58017 | 3.32164 | 101 ft | 2 kts | 70° |
| 2026-05-09 06:09 | 6.58010 | 3.32149 | 101 ft | 2 kts | 54° |
| 2026-05-09 06:09 | 6.57999 | 3.32137 | 99 ft | 2 kts | 41° |
| 2026-05-09 06:09 | 6.57986 | 3.32127 | 102 ft | 2 kts | 31° |
| 2026-05-09 06:10 | 6.57971 | 3.32120 | 103 ft | 2 kts | 22° |
| 2026-05-09 06:10 | 6.57962 | 3.32116 | 103 ft | 1 kts | 15° |
| 2026-05-09 06:10 | 6.57959 | 3.32115 | 102 ft | 0 kts | 9° |
| 2026-05-09 06:15 | 6.57959 | 3.32116 | 102 ft | 0 kts | 8° |
| 2026-05-09 06:16 | 6.57971 | 3.32115 | 103 ft | 4 kts | 353° |
| 2026-05-09 06:16 | 6.58017 | 3.32102 | 102 ft | 10 kts | 340° |
| 2026-05-09 06:16 | 6.58099 | 3.32067 | 104 ft | 15 kts | 336° |
| 2026-05-09 06:16 | 6.58192 | 3.32021 | 102 ft | 15 kts | 320° |
| 2026-05-09 06:17 | 6.58208 | 3.31939 | 103 ft | 12 kts | 253° |
| 2026-05-09 06:17 | 6.58179 | 3.31862 | 104 ft | 12 kts | 247° |
| 2026-05-09 06:17 | 6.58147 | 3.31785 | 105 ft | 12 kts | 246° |
| 2026-05-09 06:17 | 6.58112 | 3.31706 | 104 ft | 13 kts | 246° |
| 2026-05-09 06:18 | 6.58077 | 3.31623 | 103 ft | 13 kts | 246° |
| 2026-05-09 06:18 | 6.58081 | 3.31561 | 105 ft | 6 kts | 308° |
| 2026-05-09 06:18 | 6.58108 | 3.31537 | 104 ft | 4 kts | 331° |
| 2026-05-09 06:18 | 6.58132 | 3.31531 | 103 ft | 4 kts | 348° |
| 2026-05-09 06:19 | 6.58160 | 3.31527 | 104 ft | 5 kts | 355° |
| 2026-05-09 06:19 | 6.58218 | 3.31524 | 106 ft | 13 kts | 359° |
| 2026-05-09 06:19 | 6.58333 | 3.31523 | 107 ft | 19 kts | 359° |
| 2026-05-09 06:19 | 6.58478 | 3.31521 | 107 ft | 23 kts | 359° |
| 2026-05-09 06:20 | 6.58636 | 3.31519 | 105 ft | 23 kts | 359° |
| 2026-05-09 06:20 | 6.58776 | 3.31507 | 106 ft | 15 kts | 337° |
| 2026-05-09 06:20 | 6.58803 | 3.31478 | 107 ft | 2 kts | 284° |
| 2026-05-09 06:20 | 6.58807 | 3.31462 | 106 ft | 2 kts | 281° |
| 2026-05-09 06:21 | 6.58809 | 3.31441 | 106 ft | 5 kts | 275° |
| 2026-05-09 06:21 | 6.58803 | 3.31393 | 108 ft | 9 kts | 246° |
| 2026-05-09 06:21 | 6.58750 | 3.31340 | 107 ft | 13 kts | 215° |
| 2026-05-09 06:21 | 6.58696 | 3.31316 | 107 ft | 0 kts | 180° |
| 2026-05-09 06:22 | 6.58491 | 3.31317 | 106 ft | 71 kts | 179° |
| 2026-05-09 06:22 | 6.57704 | 3.31326 | 101 ft | 153 kts | 179° |
| 2026-05-09 06:22 | 6.56446 | 3.31339 | 411 ft | 190 kts | 184° |
| 2026-05-09 06:23 | 6.55175 | 3.31371 | 1521 ft | 182 kts | 181° |
| 2026-05-09 06:23 | 6.53917 | 3.31429 | 2495 ft | 177 kts | 181° |
| 2026-05-09 06:23 | 6.52692 | 3.31254 | 3347 ft | 180 kts | 201° |
| 2026-05-09 06:23 | 6.51642 | 3.30569 | 4112 ft | 191 kts | 223° |
| 2026-05-09 06:24 | 6.51240 | 3.29227 | 4699 ft | 216 kts | 273° |
| 2026-05-09 06:24 | 6.51469 | 3.27721 | 5733 ft | 224 kts | 275° |
| 2026-05-09 06:24 | 6.51538 | 3.26109 | 6617 ft | 236 kts | 269° |
| 2026-05-09 06:24 | 6.51891 | 3.24479 | 7461 ft | 243 kts | 305° |
| 2026-05-09 06:25 | 6.53089 | 3.23315 | 8333 ft | 244 kts | 338° |
| 2026-05-09 06:25 | 6.54757 | 3.22956 | 8917 ft | 255 kts | 5° |
| 2026-05-09 06:25 | 6.56612 | 3.22938 | 9546 ft | 276 kts | 7° |
| 2026-05-09 06:25 | 6.58565 | 3.22944 | 10489 ft | 290 kts | 6° |
| 2026-05-09 06:26 | 6.60684 | 3.22920 | 11085 ft | 318 kts | 4° |
| 2026-05-09 06:26 | 6.62989 | 3.22871 | 11685 ft | 343 kts | 4° |
| 2026-05-09 06:26 | 6.65390 | 3.22820 | 12825 ft | 348 kts | 3° |
| 2026-05-09 06:26 | 6.67849 | 3.22783 | 13885 ft | 357 kts | 3° |
| 2026-05-09 06:27 | 6.70359 | 3.22749 | 14857 ft | 364 kts | 2° |
| 2026-05-09 06:27 | 6.72918 | 3.22708 | 15835 ft | 371 kts | 2° |
| 2026-05-09 06:27 | 6.75519 | 3.22665 | 16774 ft | 378 kts | 2° |
| 2026-05-09 06:27 | 6.78167 | 3.22623 | 17704 ft | 385 kts | 2° |
| 2026-05-09 06:28 | 6.80865 | 3.22608 | 18542 ft | 390 kts | 6° |
| 2026-05-09 06:28 | 6.83567 | 3.22972 | 19267 ft | 394 kts | 11° |
| 2026-05-09 06:28 | 6.86293 | 3.23354 | 20087 ft | 398 kts | 10° |
| 2026-05-09 06:28 | 6.89059 | 3.23732 | 20850 ft | 404 kts | 11° |
| 2026-05-09 06:29 | 6.91860 | 3.24122 | 21600 ft | 409 kts | 11° |
| 2026-05-09 06:29 | 6.94655 | 3.24518 | 22337 ft | 414 kts | 11° |
| 2026-05-09 06:29 | 6.97523 | 3.24921 | 23063 ft | 419 kts | 11° |
| 2026-05-09 06:29 | 7.00428 | 3.25326 | 23717 ft | 424 kts | 11° |
| 2026-05-09 06:30 | 7.03362 | 3.25736 | 24351 ft | 426 kts | 11° |
| 2026-05-09 06:30 | 7.06304 | 3.26148 | 24983 ft | 429 kts | 11° |
| 2026-05-09 06:30 | 7.09258 | 3.26607 | 25580 ft | 430 kts | 14° |
| 2026-05-09 06:30 | 7.12203 | 3.27182 | 26152 ft | 433 kts | 13° |
| 2026-05-09 06:31 | 7.15174 | 3.27727 | 26747 ft | 436 kts | 13° |
| 2026-05-09 06:31 | 7.18168 | 3.28282 | 27316 ft | 438 kts | 13° |
| 2026-05-09 06:31 | 7.21176 | 3.28855 | 27874 ft | 441 kts | 13° |
| 2026-05-09 06:31 | 7.24195 | 3.29431 | 28418 ft | 444 kts | 13° |
| 2026-05-09 06:32 | 7.27235 | 3.30002 | 28956 ft | 446 kts | 13° |
| 2026-05-09 06:32 | 7.30300 | 3.30577 | 29490 ft | 449 kts | 13° |
| 2026-05-09 06:32 | 7.33384 | 3.31160 | 29987 ft | 452 kts | 13° |
| 2026-05-09 06:33 | 7.39604 | 3.32336 | 30791 ft | 458 kts | 12° |
| 2026-05-09 06:33 | 7.42752 | 3.32929 | 31159 ft | 462 kts | 12° |
| 2026-05-09 06:33 | 7.45922 | 3.33528 | 31523 ft | 465 kts | 12° |
| 2026-05-09 06:34 | 7.52322 | 3.34737 | 32219 ft | 471 kts | 12° |
| 2026-05-09 06:34 | 7.55559 | 3.35350 | 32563 ft | 474 kts | 12° |
| 2026-05-09 06:34 | 7.58814 | 3.35964 | 32904 ft | 477 kts | 12° |
| 2026-05-09 06:34 | 7.62083 | 3.36581 | 33251 ft | 480 kts | 12° |
| 2026-05-09 06:35 | 7.65375 | 3.37203 | 33557 ft | 482 kts | 12° |
| 2026-05-09 06:35 | 7.68640 | 3.37821 | 33851 ft | 485 kts | 12° |
| 2026-05-09 06:35 | 7.72009 | 3.38458 | 34117 ft | 488 kts | 12° |
| 2026-05-09 06:35 | 7.75308 | 3.39081 | 34439 ft | 488 kts | 12° |
| 2026-05-09 06:36 | 7.78646 | 3.39709 | 34836 ft | 487 kts | 10° |
| 2026-05-09 06:36 | 7.82000 | 3.40147 | 35155 ft | 487 kts | 8° |
| 2026-05-09 06:36 | 7.85360 | 3.40580 | 35537 ft | 486 kts | 8° |
| 2026-05-09 06:36 | 7.88703 | 3.41022 | 35901 ft | 485 kts | 8° |
| 2026-05-09 06:37 | 7.92045 | 3.41452 | 36281 ft | 484 kts | 8° |
| 2026-05-09 06:37 | 7.95384 | 3.41874 | 36645 ft | 483 kts | 8° |
| 2026-05-09 06:37 | 7.98717 | 3.42300 | 37004 ft | 482 kts | 7° |
| 2026-05-09 06:37 | 8.02034 | 3.42730 | 37366 ft | 481 kts | 7° |
| 2026-05-09 06:38 | 8.05353 | 3.43158 | 37733 ft | 480 kts | 7° |
| 2026-05-09 06:38 | 8.08656 | 3.43581 | 38089 ft | 479 kts | 7° |
| 2026-05-09 06:38 | 8.11962 | 3.44004 | 38446 ft | 478 kts | 7° |
| 2026-05-09 06:38 | 8.15252 | 3.44428 | 38756 ft | 477 kts | 7° |
| 2026-05-09 06:39 | 8.18550 | 3.44853 | 38978 ft | 478 kts | 7° |
| 2026-05-09 06:39 | 8.21877 | 3.45281 | 38953 ft | 485 kts | 7° |
| 2026-05-09 06:39 | 8.28637 | 3.46150 | 38965 ft | 496 kts | 7° |
| 2026-05-09 06:40 | 8.35551 | 3.47039 | 38978 ft | 505 kts | 7° |
| 2026-05-09 06:40 | 8.42537 | 3.47939 | 38976 ft | 499 kts | 7° |
| 2026-05-09 06:41 | 8.45930 | 3.48375 | 38940 ft | 481 kts | 7° |
| 2026-05-09 06:41 | 8.49178 | 3.48793 | 38968 ft | 467 kts | 7° |
| 2026-05-09 06:41 | 8.55614 | 3.49623 | 38951 ft | 459 kts | 7° |
| 2026-05-09 06:42 | 8.61839 | 3.50425 | 38967 ft | 446 kts | 7° |
| 2026-05-09 06:42 | 8.68013 | 3.51220 | 38845 ft | 451 kts | 7° |
| 2026-05-09 06:43 | 8.71123 | 3.51621 | 38685 ft | 452 kts | 7° |
| 2026-05-09 06:43 | 8.74249 | 3.52024 | 38495 ft | 452 kts | 7° |
| 2026-05-09 06:43 | 8.77363 | 3.52426 | 38304 ft | 451 kts | 8° |
| 2026-05-09 06:43 | 8.80471 | 3.52827 | 38118 ft | 450 kts | 7° |
| 2026-05-09 06:44 | 8.83573 | 3.53227 | 37965 ft | 448 kts | 7° |
| 2026-05-09 06:44 | 8.86657 | 3.53625 | 37983 ft | 446 kts | 7° |
| 2026-05-09 06:44 | 8.92862 | 3.54426 | 37988 ft | 452 kts | 8° |
| 2026-05-09 06:45 | 8.99110 | 3.55232 | 37981 ft | 454 kts | 8° |
| 2026-05-09 06:45 | 9.05381 | 3.56041 | 37998 ft | 453 kts | 7° |
| 2026-05-09 06:46 | 9.11647 | 3.56852 | 37987 ft | 455 kts | 8° |
| 2026-05-09 06:46 | 9.17925 | 3.57664 | 37981 ft | 455 kts | 7° |
| 2026-05-09 06:47 | 9.24042 | 3.58453 | 37968 ft | 446 kts | 8° |
| 2026-05-09 06:47 | 9.27081 | 3.58848 | 37959 ft | 433 kts | 8° |
| 2026-05-09 06:47 | 9.30024 | 3.59228 | 37955 ft | 421 kts | 8° |
| 2026-05-09 06:48 | 9.35784 | 3.59973 | 37964 ft | 422 kts | 8° |
| 2026-05-09 06:48 | 9.41669 | 3.60735 | 37979 ft | 436 kts | 8° |
| 2026-05-09 06:49 | 9.47786 | 3.61527 | 37995 ft | 449 kts | 7° |
| 2026-05-09 06:49 | 9.54025 | 3.62335 | 37962 ft | 454 kts | 7° |
| 2026-05-09 06:50 | 9.60285 | 3.63146 | 37967 ft | 453 kts | 7° |
| 2026-05-09 06:50 | 9.66527 | 3.63955 | 37964 ft | 452 kts | 7° |
| 2026-05-09 06:51 | 9.72785 | 3.64767 | 37958 ft | 453 kts | 7° |
| 2026-05-09 06:51 | 9.79042 | 3.65578 | 37965 ft | 453 kts | 7° |
| 2026-05-09 06:52 | 9.85289 | 3.66389 | 37967 ft | 452 kts | 7° |
| 2026-05-09 06:52 | 9.91534 | 3.67199 | 37963 ft | 453 kts | 7° |
| 2026-05-09 06:53 | 9.97779 | 3.68010 | 37971 ft | 453 kts | 7° |
| 2026-05-09 06:53 | 10.04023 | 3.68821 | 37956 ft | 452 kts | 7° |
| 2026-05-09 06:54 | 10.10256 | 3.69631 | 37935 ft | 452 kts | 7° |
| 2026-05-09 06:54 | 10.13404 | 3.70041 | 37563 ft | 457 kts | 7° |
| 2026-05-09 06:54 | 10.16533 | 3.70447 | 37176 ft | 452 kts | 7° |
| 2026-05-09 06:55 | 10.19644 | 3.70852 | 36787 ft | 447 kts | 7° |
| 2026-05-09 06:55 | 10.22666 | 3.71245 | 36414 ft | 442 kts | 7° |
| 2026-05-09 06:55 | 10.25737 | 3.71645 | 36036 ft | 438 kts | 7° |
| 2026-05-09 06:55 | 10.28744 | 3.72036 | 35673 ft | 433 kts | 7° |
| 2026-05-09 06:56 | 10.31683 | 3.72418 | 35307 ft | 429 kts | 7° |
| 2026-05-09 06:56 | 10.34628 | 3.72802 | 34951 ft | 425 kts | 8° |
| 2026-05-09 06:56 | 10.37553 | 3.73184 | 34584 ft | 421 kts | 8° |
| 2026-05-09 06:56 | 10.40449 | 3.73560 | 34229 ft | 418 kts | 8° |
| 2026-05-09 06:57 | 10.43321 | 3.73933 | 33960 ft | 412 kts | 8° |
| 2026-05-09 06:57 | 10.46118 | 3.74298 | 33946 ft | 398 kts | 8° |
| 2026-05-09 06:57 | 10.48817 | 3.74649 | 33944 ft | 385 kts | 8° |
| 2026-05-09 06:57 | 10.51427 | 3.74989 | 33938 ft | 372 kts | 8° |
| 2026-05-09 06:58 | 10.53948 | 3.75318 | 33934 ft | 359 kts | 8° |
| 2026-05-09 06:58 | 10.56379 | 3.75635 | 33923 ft | 346 kts | 8° |
| 2026-05-09 06:58 | 10.60229 | 3.76137 | 33913 ft | 326 kts | 8° |
| 2026-05-09 06:59 | 10.62429 | 3.76423 | 33910 ft | 312 kts | 8° |
| 2026-05-09 06:59 | 10.64529 | 3.76696 | 33868 ft | 298 kts | 8° |
| 2026-05-09 06:59 | 10.66571 | 3.76965 | 33506 ft | 296 kts | 8° |
| 2026-05-09 06:59 | 10.68664 | 3.77239 | 32962 ft | 313 kts | 8° |
| 2026-05-09 07:00 | 10.70847 | 3.77526 | 33066 ft | 317 kts | 8° |
| 2026-05-09 07:00 | 10.73055 | 3.77814 | 33291 ft | 322 kts | 8° |
| 2026-05-09 07:00 | 10.75290 | 3.78102 | 33524 ft | 327 kts | 8° |
| 2026-05-09 07:00 | 10.76387 | 3.78244 | 33622 ft | 330 kts | 8° |